createdAt,value
2022-10-05T00:03:00.909Z,83.90
2022-10-05T00:06:48.116Z,84.00
2022-10-05T00:10:30.362Z,84.10
2022-10-05T00:14:28.631Z,83.90
2022-10-05T00:18:18.159Z,84.00
2022-10-05T00:22:06.611Z,83.90
2022-10-05T00:25:48.386Z,83.90
2022-10-05T00:29:30.065Z,83.90
2022-10-05T00:33:12.057Z,83.90
2022-10-05T00:36:54.218Z,83.80
2022-10-05T00:40:40.199Z,83.90
2022-10-05T00:44:27.719Z,84.00
2022-10-05T00:48:40.120Z,84.10
2022-10-05T00:52:40.440Z,84.10
2022-10-05T00:56:32.488Z,84.00
2022-10-05T01:00:17.203Z,84.20
2022-10-05T01:04:08.726Z,84.20
2022-10-05T01:07:59.284Z,84.40
2022-10-05T01:11:50.395Z,84.30
2022-10-05T01:15:33.675Z,84.30
2022-10-05T01:19:34.933Z,84.50
2022-10-05T01:23:16.803Z,84.50
2022-10-05T01:27:01.586Z,84.60
2022-10-05T01:30:59.634Z,84.80
2022-10-05T01:34:52.165Z,85.00
2022-10-05T01:38:42.738Z,85.20
2022-10-05T01:42:36.431Z,85.30
2022-10-05T01:46:38.383Z,85.40
2022-10-05T01:51:00.831Z,85.40
2022-10-05T01:54:48.287Z,85.50
2022-10-05T01:58:35.839Z,85.50
2022-10-05T02:02:18.804Z,85.40
2022-10-05T02:06:04.509Z,85.30
2022-10-05T02:09:54.201Z,85.40
2022-10-05T02:13:47.162Z,85.70
2022-10-05T02:17:35.505Z,85.50
2022-10-05T02:21:17.717Z,85.60
2022-10-05T02:25:11.038Z,85.60
2022-10-05T02:28:55.776Z,85.80
2022-10-05T02:32:47.338Z,85.60
2022-10-05T02:36:34.664Z,85.80
2022-10-05T02:40:22.591Z,85.90
2022-10-05T02:44:22.394Z,86.20
2022-10-05T02:48:50.862Z,86.30
2022-10-05T02:52:42.603Z,86.40
2022-10-05T02:56:24.271Z,86.40
2022-10-05T03:00:16.671Z,86.30
2022-10-05T03:04:16.383Z,86.40
2022-10-05T03:08:02.377Z,86.40
2022-10-05T03:11:53.845Z,86.90
2022-10-05T03:16:01.691Z,86.40
2022-10-05T03:19:47.522Z,86.40
2022-10-05T03:23:41.138Z,86.20
2022-10-05T03:27:33.060Z,86.30
2022-10-05T03:31:21.136Z,86.40
2022-10-05T03:35:12.201Z,86.40
2022-10-05T03:39:27.910Z,86.40
2022-10-05T03:43:15.995Z,86.70
2022-10-05T03:47:16.216Z,86.70
2022-10-05T03:51:08.414Z,86.80
2022-10-05T03:55:02.883Z,86.90
2022-10-05T03:59:14.042Z,87.00
2022-10-05T04:03:01.752Z,87.00
2022-10-05T04:06:47.431Z,86.70
2022-10-05T04:10:46.809Z,86.70
2022-10-05T04:14:30.092Z,86.90
2022-10-05T04:18:39.154Z,86.80
2022-10-05T04:22:28.288Z,87.00
2022-10-05T04:26:15.530Z,87.10
2022-10-05T04:30:12.378Z,87.10
2022-10-05T04:34:00.413Z,87.10
2022-10-05T04:37:54.031Z,87.30
2022-10-05T04:41:53.987Z,87.60
2022-10-05T04:45:45.596Z,87.70
2022-10-05T04:49:58.184Z,87.90
2022-10-05T04:53:46.453Z,88.10
2022-10-05T04:58:10.260Z,88.00
2022-10-05T05:02:04.384Z,88.60
2022-10-05T05:06:15.406Z,89.00
2022-10-05T05:10:10.845Z,88.90
2022-10-05T05:14:03.880Z,90.00
2022-10-05T05:18:02.242Z,90.10
2022-10-05T05:22:04.027Z,90.50
2022-10-05T05:25:56.999Z,90.20
2022-10-05T05:29:50.698Z,90.50
2022-10-05T05:33:39.202Z,90.20
2022-10-05T05:37:50.635Z,90.60
2022-10-05T05:41:50.902Z,90.80
2022-10-05T05:45:42.079Z,90.60
2022-10-05T05:49:48.063Z,91.00
2022-10-05T05:53:33.021Z,91.10
2022-10-05T05:57:30.660Z,90.90
2022-10-05T06:01:31.692Z,91.10
2022-10-05T06:05:34.407Z,91.00
2022-10-05T06:09:40.503Z,91.10
2022-10-05T06:13:33.825Z,91.10
2022-10-05T06:17:37.429Z,90.90
2022-10-05T06:21:21.185Z,91.20
2022-10-05T06:25:12.015Z,90.80
2022-10-05T06:29:00.059Z,90.90
2022-10-05T06:32:42.098Z,90.90
2022-10-05T06:36:55.712Z,90.80
2022-10-05T06:40:47.727Z,90.70
2022-10-05T06:44:44.438Z,90.90
2022-10-05T06:48:28.884Z,90.70
2022-10-05T06:52:42.356Z,90.60
2022-10-05T06:56:28.485Z,90.80
2022-10-05T07:00:20.491Z,90.60
2022-10-05T07:04:14.101Z,90.70
2022-10-05T07:07:58.966Z,90.70
2022-10-05T07:12:03.686Z,90.60
2022-10-05T07:15:52.682Z,90.70
2022-10-05T07:20:06.685Z,90.50
2022-10-05T07:23:53.758Z,90.40
2022-10-05T07:27:38.655Z,90.30
2022-10-05T07:31:35.811Z,90.20
2022-10-05T07:35:59.014Z,90.20
2022-10-05T07:40:07.070Z,90.10
2022-10-05T07:44:11.590Z,90.00
2022-10-05T07:47:59.225Z,89.80
2022-10-05T07:52:01.963Z,89.40
2022-10-05T07:55:47.192Z,89.40
2022-10-05T07:59:34.224Z,89.00
2022-10-05T08:03:40.336Z,88.40
2022-10-05T08:11:17.585Z,88.40
2022-10-05T08:15:15.421Z,88.30
2022-10-05T08:19:08.455Z,88.20
2022-10-05T08:23:25.953Z,87.90
2022-10-05T08:27:26.781Z,88.20
2022-10-05T08:31:17.172Z,87.90
2022-10-05T08:35:03.291Z,87.70
2022-10-05T08:38:45.123Z,87.60
2022-10-05T08:42:44.625Z,87.30
2022-10-05T08:46:44.397Z,87.10
2022-10-05T08:50:45.710Z,86.50
2022-10-05T08:54:44.778Z,86.30
2022-10-05T08:58:37.551Z,86.20
2022-10-05T09:02:46.396Z,85.90
2022-10-05T09:07:03.222Z,85.40
2022-10-05T09:11:12.110Z,85.50
2022-10-05T09:15:32.037Z,85.20
2022-10-05T09:19:38.111Z,85.50
2022-10-05T09:23:39.006Z,86.00
2022-10-05T09:27:33.554Z,86.20
2022-10-05T09:31:24.638Z,86.00
2022-10-05T09:35:48.757Z,86.80
2022-10-05T09:40:08.245Z,87.70
2022-10-05T09:43:59.061Z,88.30
2022-10-05T09:47:59.929Z,88.50
2022-10-05T09:51:52.468Z,88.90
2022-10-05T09:55:47.201Z,89.40
2022-10-05T09:59:53.443Z,89.90
2022-10-05T10:03:58.684Z,90.20
2022-10-05T10:08:10.940Z,90.40
2022-10-05T10:12:24.328Z,90.60
2022-10-05T10:16:39.929Z,90.80
2022-10-05T10:20:24.674Z,91.00
2022-10-05T10:24:23.694Z,90.80
2022-10-05T10:28:46.678Z,91.00
2022-10-05T10:32:53.695Z,91.20
2022-10-05T10:37:02.647Z,91.40
2022-10-05T10:40:59.570Z,91.50
2022-10-05T10:44:48.191Z,91.60
2022-10-05T10:48:29.861Z,91.50
2022-10-05T10:52:39.289Z,91.60
2022-10-05T10:56:33.297Z,92.00
2022-10-05T11:00:41.699Z,92.20
2022-10-05T11:04:26.442Z,92.40
2022-10-05T11:08:15.122Z,92.50
2022-10-05T11:12:38.547Z,92.10
2022-10-05T11:16:23.055Z,91.20
2022-10-05T11:20:40.019Z,90.60
2022-10-05T11:25:00.064Z,90.40
2022-10-05T11:29:06.265Z,90.50
2022-10-05T11:32:57.019Z,90.00
2022-10-05T11:36:50.382Z,88.70
2022-10-05T11:40:50.295Z,88.90
2022-10-05T11:45:11.492Z,89.80
2022-10-05T11:49:14.342Z,90.00
2022-10-05T11:53:12.014Z,88.80
2022-10-05T11:56:57.270Z,89.40
2022-10-05T12:00:42.621Z,88.50
2022-10-05T12:04:30.587Z,88.80
2022-10-05T12:08:36.141Z,88.30
2022-10-05T12:12:26.710Z,88.30
2022-10-05T12:16:34.773Z,89.70
2022-10-05T12:20:33.699Z,89.20
2022-10-05T12:25:02.917Z,89.10
2022-10-05T12:28:51.933Z,89.00
2022-10-05T12:32:43.750Z,89.40
2022-10-05T12:36:46.214Z,88.20
2022-10-05T12:40:38.167Z,87.80
2022-10-05T12:45:03.833Z,87.90
2022-10-05T12:49:03.658Z,88.40
2022-10-05T12:53:05.936Z,87.60
2022-10-05T12:56:52.815Z,87.30
2022-10-05T13:00:35.923Z,86.60
2022-10-05T13:04:29.067Z,85.40
2022-10-05T13:08:29.275Z,84.80
2022-10-05T13:12:39.234Z,83.70
2022-10-05T13:16:30.104Z,83.00
2022-10-05T13:20:24.633Z,84.00
2022-10-05T13:24:40.403Z,83.20
2022-10-05T13:28:46.976Z,84.60
2022-10-05T13:32:36.089Z,84.40
2022-10-05T13:36:45.457Z,84.20
2022-10-05T13:40:35.674Z,83.80
2022-10-05T13:44:32.414Z,84.00
2022-10-05T13:48:51.696Z,82.90
2022-10-05T13:52:42.150Z,81.70
2022-10-05T13:56:31.114Z,81.70
2022-10-05T14:00:24.141Z,81.10
2022-10-05T14:04:27.477Z,81.10
2022-10-05T14:08:16.658Z,80.40
2022-10-05T14:12:04.438Z,80.40
2022-10-05T14:16:13.298Z,80.60
2022-10-05T14:19:56.959Z,80.40
2022-10-05T14:23:38.744Z,78.00
2022-10-05T14:27:28.278Z,77.10
2022-10-05T14:31:26.954Z,76.50
2022-10-05T14:35:15.347Z,76.00
2022-10-05T14:39:02.107Z,76.00
2022-10-05T14:42:47.269Z,77.30
2022-10-05T14:46:30.161Z,76.80
2022-10-05T14:50:21.251Z,77.60
2022-10-05T14:54:14.908Z,75.80
2022-10-05T14:58:23.935Z,76.40
2022-10-05T15:02:24.816Z,75.40
2022-10-05T15:06:08.818Z,75.90
2022-10-05T15:10:26.900Z,75.70
2022-10-05T15:14:21.980Z,76.00
2022-10-05T15:18:07.759Z,76.00
2022-10-05T15:22:19.230Z,76.30
2022-10-05T15:26:07.590Z,76.60
2022-10-05T15:30:09.310Z,76.20
2022-10-05T15:33:55.689Z,76.40
2022-10-05T15:37:42.465Z,74.70
2022-10-05T15:41:29.258Z,75.00
2022-10-05T15:45:33.511Z,75.70
2022-10-05T15:49:27.628Z,75.20
2022-10-05T15:53:37.044Z,73.20
2022-10-05T15:57:45.561Z,73.10
2022-10-05T16:01:33.603Z,72.90
2022-10-05T16:05:57.787Z,71.80
2022-10-05T16:10:00.474Z,70.70
2022-10-05T16:13:51.961Z,68.80
2022-10-05T16:17:53.095Z,69.00
2022-10-05T16:21:57.942Z,67.90
2022-10-05T16:26:27.054Z,69.30
2022-10-05T16:30:22.575Z,68.60
2022-10-05T16:34:17.146Z,68.50
2022-10-05T16:38:51.201Z,67.00
2022-10-05T16:43:04.720Z,67.30
2022-10-05T16:47:27.658Z,65.60
2022-10-05T16:51:21.482Z,65.40
2022-10-05T16:55:04.994Z,64.70
2022-10-05T16:59:05.598Z,66.30
2022-10-05T17:03:12.126Z,65.70
2022-10-05T17:07:13.667Z,66.10
2022-10-05T17:11:34.257Z,66.70
2022-10-05T17:15:41.657Z,67.40
2022-10-05T17:19:32.873Z,66.90
2022-10-05T17:23:23.457Z,68.20
2022-10-05T17:27:52.547Z,68.40
2022-10-05T17:31:46.614Z,69.40
2022-10-05T17:35:47.042Z,70.10
2022-10-05T17:39:50.855Z,69.80
2022-10-05T17:43:33.236Z,70.20
2022-10-05T17:47:16.137Z,70.90
2022-10-05T17:51:16.337Z,71.40
2022-10-05T17:55:19.984Z,71.30
2022-10-05T17:59:06.154Z,71.40
2022-10-05T18:02:47.888Z,71.70
2022-10-05T18:06:31.810Z,71.80
2022-10-05T18:10:28.940Z,71.60
2022-10-05T18:14:19.702Z,72.50
2022-10-05T18:18:33.383Z,72.50
2022-10-05T18:22:18.061Z,72.20
2022-10-05T18:26:26.379Z,71.90
2022-10-05T18:30:20.013Z,71.00
2022-10-05T18:34:04.581Z,70.30
2022-10-05T18:38:21.801Z,71.10
2022-10-05T18:42:22.944Z,71.00
2022-10-05T18:46:22.736Z,70.40
2022-10-05T18:50:16.619Z,70.50
2022-10-05T18:54:17.549Z,70.10
2022-10-05T18:58:22.400Z,71.20
2022-10-05T19:02:26.092Z,71.10
2022-10-05T19:06:12.842Z,70.90
2022-10-05T19:10:16.410Z,70.80
2022-10-05T19:14:33.898Z,70.50
2022-10-05T19:18:15.660Z,70.70
2022-10-05T19:22:06.175Z,71.10
2022-10-05T19:26:03.238Z,70.80
2022-10-05T19:30:03.680Z,70.70
2022-10-05T19:33:58.331Z,71.10
2022-10-05T19:37:50.079Z,71.50
2022-10-05T19:41:52.035Z,71.80
2022-10-05T19:45:44.061Z,71.70
2022-10-05T19:49:56.965Z,73.00
2022-10-05T19:53:45.231Z,74.40
2022-10-05T19:57:26.972Z,75.40
2022-10-05T20:01:12.019Z,75.00
2022-10-05T20:04:56.055Z,75.30
2022-10-05T20:08:48.070Z,75.10
2022-10-05T20:12:52.897Z,75.20
2022-10-05T20:16:53.129Z,75.40
2022-10-05T20:20:35.045Z,76.00
2022-10-05T20:24:16.770Z,77.10
2022-10-05T20:27:58.611Z,77.40
2022-10-05T20:31:40.406Z,77.40
2022-10-05T20:35:22.983Z,77.80
2022-10-05T20:39:04.718Z,77.50
2022-10-05T20:42:47.474Z,77.20
2022-10-05T20:46:31.071Z,77.30
2022-10-05T20:50:13.128Z,77.10
2022-10-05T20:53:58.554Z,78.10
2022-10-05T20:57:42.244Z,77.50
2022-10-05T21:01:26.947Z,77.80
2022-10-05T21:05:09.099Z,77.80
2022-10-05T21:08:51.369Z,77.70
2022-10-05T21:12:34.742Z,77.70
2022-10-05T21:16:18.511Z,78.10
2022-10-05T21:20:00.446Z,78.10
2022-10-05T21:23:42.262Z,78.20
2022-10-05T21:27:24.581Z,78.10
2022-10-05T21:31:07.599Z,78.00
2022-10-05T21:34:49.382Z,78.20
2022-10-05T21:38:31.285Z,78.10
2022-10-05T21:42:13.122Z,78.20
2022-10-05T21:45:55.133Z,78.20
2022-10-05T21:49:36.946Z,78.20
2022-10-05T21:53:19.711Z,78.20
2022-10-05T21:57:01.493Z,78.10
2022-10-05T22:00:43.211Z,78.10
2022-10-05T22:04:25.031Z,78.10
2022-10-05T22:08:08.000Z,78.00
2022-10-05T22:11:51.329Z,78.30
2022-10-05T22:15:33.446Z,78.40
2022-10-05T22:19:16.891Z,78.20
2022-10-05T22:22:58.816Z,78.40
2022-10-05T22:26:41.506Z,78.40
2022-10-05T22:30:23.300Z,78.10
2022-10-05T22:34:04.984Z,78.50
2022-10-05T22:37:46.647Z,78.60
2022-10-05T22:41:28.448Z,78.80
2022-10-05T22:45:10.163Z,78.80
2022-10-05T22:48:51.860Z,78.80
2022-10-05T22:52:34.786Z,79.20
2022-10-05T22:56:16.689Z,79.50
2022-10-05T23:00:00.460Z,79.30
2022-10-05T23:03:42.214Z,79.20
2022-10-05T23:07:23.962Z,78.80
2022-10-05T23:11:06.682Z,79.10
2022-10-05T23:14:48.350Z,79.50
2022-10-05T23:18:30.619Z,79.30
2022-10-05T23:22:12.814Z,79.20
2022-10-05T23:25:59.825Z,79.20
2022-10-05T23:29:41.611Z,79.60
2022-10-05T23:33:23.341Z,79.50
2022-10-05T23:37:05.201Z,79.50
2022-10-05T23:40:47.946Z,79.70
2022-10-05T23:44:29.673Z,79.40
2022-10-05T23:48:11.382Z,79.50
2022-10-05T23:51:54.308Z,79.90
2022-10-05T23:55:36.024Z,79.80
2022-10-05T23:59:17.707Z,79.80
